Parkrose, Oregon
Current Conditions -  °F | °C
As of 3:53 PM on Wednesday 26 Nov 2014 (Local Time) from KTTD Reporting Station
Few Clouds Few Clouds  
Wind Chill: 59°   Ceiling: Unl
Heat Index: 59°   Visibility: 10mi
Dew Point: 51°   Wind: 8mph
Humidity: 75%   Direction: 90°E
Pressure: 30.06"   Gusts: NA
Location:  45.5423°N, 122.5°W
Report Text: KTTD 262353Z 09007KT 10SM FEW055 15/11 A3006 RMK AO2 SLP179 T01500106 10167 20144 58014
Loading
Personal Weather Stations






























Interactive Weather Map New forecast layout! Learn more

10-Day Weather Forecast

Advertisements
Track Severe Weather on mobile